sensor_id;sensor_type;location;lat;lon;timestamp;pressure;altitude;pressure_sealevel;temperature;humidity
72395;BME280;60384;48.152;11.614;2023-03-12T00:03:00;95228.59;;;3.37;54.25
72395;BME280;60384;48.152;11.614;2023-03-12T00:06:02;95234.19;;;3.36;54.30
72395;BME280;60384;48.152;11.614;2023-03-12T00:09:04;95242.38;;;3.34;53.63
72395;BME280;60384;48.152;11.614;2023-03-12T00:12:06;95225.81;;;3.28;54.34
72395;BME280;60384;48.152;11.614;2023-03-12T00:15:09;95218.44;;;3.25;53.88
72395;BME280;60384;48.152;11.614;2023-03-12T00:18:12;95230.63;;;3.21;54.05
72395;BME280;60384;48.152;11.614;2023-03-12T00:21:14;95234.63;;;3.19;53.72
72395;BME280;60384;48.152;11.614;2023-03-12T00:24:16;95231.47;;;3.17;54.10
72395;BME280;60384;48.152;11.614;2023-03-12T00:27:18;95228.03;;;3.16;54.07
72395;BME280;60384;48.152;11.614;2023-03-12T00:30:20;95226.97;;;3.17;53.96
72395;BME280;60384;48.152;11.614;2023-03-12T00:33:23;95233.53;;;3.20;53.75
72395;BME280;60384;48.152;11.614;2023-03-12T00:36:26;95233.25;;;3.21;53.55
72395;BME280;60384;48.152;11.614;2023-03-12T00:39:28;95231.19;;;3.18;53.97
72395;BME280;60384;48.152;11.614;2023-03-12T00:42:30;95236.22;;;3.15;53.59
72395;BME280;60384;48.152;11.614;2023-03-12T00:45:32;95239.97;;;3.09;53.96
72395;BME280;60384;48.152;11.614;2023-03-12T00:48:36;95240.31;;;3.02;53.85
72395;BME280;60384;48.152;11.614;2023-03-12T00:51:38;95240.88;;;2.99;54.22
72395;BME280;60384;48.152;11.614;2023-03-12T00:54:39;95232.75;;;2.96;54.33
72395;BME280;60384;48.152;11.614;2023-03-12T00:57:41;95236.19;;;2.96;53.86
72395;BME280;60384;48.152;11.614;2023-03-12T01:00:43;95235.66;;;2.94;54.09
72395;BME280;60384;48.152;11.614;2023-03-12T01:03:46;95234.06;;;2.93;54.01
72395;BME280;60384;48.152;11.614;2023-03-12T01:06:48;95232.00;;;2.90;54.21
72395;BME280;60384;48.152;11.614;2023-03-12T01:09:50;95234.13;;;2.88;54.10
72395;BME280;60384;48.152;11.614;2023-03-12T01:12:52;95237.03;;;2.86;54.06
72395;BME280;60384;48.152;11.614;2023-03-12T01:15:54;95236.25;;;2.86;54.01
72395;BME280;60384;48.152;11.614;2023-03-12T01:18:58;95237.03;;;2.86;53.99
72395;BME280;60384;48.152;11.614;2023-03-12T01:22:01;95239.41;;;2.88;54.19
72395;BME280;60384;48.152;11.614;2023-03-12T01:25:03;95249.94;;;2.88;53.88
72395;BME280;60384;48.152;11.614;2023-03-12T01:28:05;95237.56;;;2.88;53.68
72395;BME280;60384;48.152;11.614;2023-03-12T01:31:08;95257.34;;;2.86;53.71
72395;BME280;60384;48.152;11.614;2023-03-12T01:34:11;95251.13;;;2.77;54.02
72395;BME280;60384;48.152;11.614;2023-03-12T01:37:13;95246.91;;;2.76;53.80
72395;BME280;60384;48.152;11.614;2023-03-12T01:40:20;95259.53;;;2.79;53.87
72395;BME280;60384;48.152;11.614;2023-03-12T01:43:27;95251.84;;;2.82;54.10
72395;BME280;60384;48.152;11.614;2023-03-12T01:46:32;95244.22;;;2.81;53.72
72395;BME280;60384;48.152;11.614;2023-03-12T01:49:39;95245.00;;;2.81;53.95
72395;BME280;60384;48.152;11.614;2023-03-12T01:52:41;95242.59;;;2.85;54.55
72395;BME280;60384;48.152;11.614;2023-03-12T01:55:43;95236.75;;;2.88;54.11
72395;BME280;60384;48.152;11.614;2023-03-12T01:58:47;95236.19;;;2.91;53.91
72395;BME280;60384;48.152;11.614;2023-03-12T02:01:50;95232.00;;;2.90;54.24
72395;BME280;60384;48.152;11.614;2023-03-12T02:05:00;95231.97;;;2.95;54.16
72395;BME280;60384;48.152;11.614;2023-03-12T02:08:04;95229.31;;;2.95;53.72
72395;BME280;60384;48.152;11.614;2023-03-12T02:11:07;95232.19;;;2.99;53.94
72395;BME280;60384;48.152;11.614;2023-03-12T02:14:09;95244.31;;;3.00;53.88
72395;BME280;60384;48.152;11.614;2023-03-12T02:17:11;95243.25;;;3.01;53.64
72395;BME280;60384;48.152;11.614;2023-03-12T02:20:17;95257.22;;;3.01;53.97
72395;BME280;60384;48.152;11.614;2023-03-12T02:23:26;95252.75;;;3.02;53.72
72395;BME280;60384;48.152;11.614;2023-03-12T02:26:31;95261.41;;;3.02;54.00
72395;BME280;60384;48.152;11.614;2023-03-12T02:29:39;95262.19;;;3.03;53.85
72395;BME280;60384;48.152;11.614;2023-03-12T02:32:43;95267.78;;;3.01;53.95
72395;BME280;60384;48.152;11.614;2023-03-12T02:35:46;95267.78;;;3.01;54.09
72395;BME280;60384;48.152;11.614;2023-03-12T02:38:49;95264.34;;;3.01;54.05
72395;BME280;60384;48.152;11.614;2023-03-12T02:41:54;95265.41;;;3.00;54.11
72395;BME280;60384;48.152;11.614;2023-03-12T02:44:58;95266.75;;;2.97;54.22
72395;BME280;60384;48.152;11.614;2023-03-12T02:48:01;95268.38;;;2.93;54.06
72395;BME280;60384;48.152;11.614;2023-03-12T02:51:03;95265.50;;;2.89;54.34
72395;BME280;60384;48.152;11.614;2023-03-12T02:54:06;95268.16;;;2.89;54.14
72395;BME280;60384;48.152;11.614;2023-03-12T02:57:09;95266.31;;;2.90;53.80
72395;BME280;60384;48.152;11.614;2023-03-12T03:00:13;95270.78;;;2.89;53.77
72395;BME280;60384;48.152;11.614;2023-03-12T03:03:20;95272.34;;;2.90;54.06
72395;BME280;60384;48.152;11.614;2023-03-12T03:06:21;95280.25;;;2.90;54.09
72395;BME280;60384;48.152;11.614;2023-03-12T03:09:24;95279.50;;;2.90;54.20
72395;BME280;60384;48.152;11.614;2023-03-12T03:12:27;95278.97;;;2.88;54.21
72395;BME280;60384;48.152;11.614;2023-03-12T03:15:29;95278.69;;;2.89;53.97
72395;BME280;60384;48.152;11.614;2023-03-12T03:18:31;95280.25;;;2.90;54.24
72395;BME280;60384;48.152;11.614;2023-03-12T03:21:33;95280.50;;;2.94;54.25
72395;BME280;60384;48.152;11.614;2023-03-12T03:24:35;95283.13;;;2.94;54.27
72395;BME280;60384;48.152;11.614;2023-03-12T03:27:38;95281.03;;;2.96;53.91
72395;BME280;60384;48.152;11.614;2023-03-12T03:30:41;95291.56;;;2.96;53.96
72395;BME280;60384;48.152;11.614;2023-03-12T03:33:43;95288.94;;;2.96;53.82
72395;BME280;60384;48.152;11.614;2023-03-12T03:36:47;95284.16;;;2.98;53.93
72395;BME280;60384;48.152;11.614;2023-03-12T03:39:50;95282.28;;;2.99;53.93
72395;BME280;60384;48.152;11.614;2023-03-12T03:42:53;95283.59;;;3.01;54.10
72395;BME280;60384;48.152;11.614;2023-03-12T03:45:56;95279.38;;;3.00;54.25
72395;BME280;60384;48.152;11.614;2023-03-12T03:48:58;95281.50;;;2.98;53.81
72395;BME280;60384;48.152;11.614;2023-03-12T03:52:01;95284.94;;;2.99;53.86
72395;BME280;60384;48.152;11.614;2023-03-12T03:55:08;95294.94;;;3.02;53.85
72395;BME280;60384;48.152;11.614;2023-03-12T03:58:12;95302.28;;;3.05;54.14
72395;BME280;60384;48.152;11.614;2023-03-12T04:01:14;95294.09;;;3.06;54.08
72395;BME280;60384;48.152;11.614;2023-03-12T04:04:17;95298.81;;;3.09;53.42
72395;BME280;60384;48.152;11.614;2023-03-12T04:07:19;95302.47;;;3.13;53.88
72395;BME280;60384;48.152;11.614;2023-03-12T04:10:23;95301.66;;;3.18;54.01
72395;BME280;60384;48.152;11.614;2023-03-12T04:13:26;95296.88;;;3.20;53.79
72395;BME280;60384;48.152;11.614;2023-03-12T04:16:28;95306.09;;;3.22;54.07
72395;BME280;60384;48.152;11.614;2023-03-12T04:19:31;95310.00;;;3.25;53.90
72395;BME280;60384;48.152;11.614;2023-03-12T04:22:34;95314.75;;;3.28;53.87
72395;BME280;60384;48.152;11.614;2023-03-12T04:25:36;95312.31;;;3.31;53.92
72395;BME280;60384;48.152;11.614;2023-03-12T04:28:40;95313.63;;;3.34;54.03
72395;BME280;60384;48.152;11.614;2023-03-12T04:31:43;95313.38;;;3.36;53.93
72395;BME280;60384;48.152;11.614;2023-03-12T04:34:45;95312.00;;;3.38;53.97
72395;BME280;60384;48.152;11.614;2023-03-12T04:37:49;95312.00;;;3.38;53.77
72395;BME280;60384;48.152;11.614;2023-03-12T04:40:57;95314.63;;;3.38;53.36
72395;BME280;60384;48.152;11.614;2023-03-12T04:44:00;95320.19;;;3.37;54.05
72395;BME280;60384;48.152;11.614;2023-03-12T04:47:03;95322.84;;;3.37;54.06
72395;BME280;60384;48.152;11.614;2023-03-12T04:50:06;95318.06;;;3.39;53.96
72395;BME280;60384;48.152;11.614;2023-03-12T04:53:08;95310.66;;;3.41;53.88
72395;BME280;60384;48.152;11.614;2023-03-12T04:56:11;95309.88;;;3.40;53.56
72395;BME280;60384;48.152;11.614;2023-03-12T04:59:15;95299.31;;;3.40;54.14
72395;BME280;60384;48.152;11.614;2023-03-12T05:02:18;95296.69;;;3.40;54.22
72395;BME280;60384;48.152;11.614;2023-03-12T05:05:21;95300.91;;;3.41;53.67
72395;BME280;60384;48.152;11.614;2023-03-12T05:08:23;95301.13;;;3.45;53.63
72395;BME280;60384;48.152;11.614;2023-03-12T05:11:25;95297.91;;;3.48;53.74
72395;BME280;60384;48.152;11.614;2023-03-12T05:14:28;95285.22;;;3.50;54.04
72395;BME280;60384;48.152;11.614;2023-03-12T05:17:30;95291.50;;;3.54;53.77
72395;BME280;60384;48.152;11.614;2023-03-12T05:20:31;95282.78;;;3.53;53.78
72395;BME280;60384;48.152;11.614;2023-03-12T05:23:34;95288.84;;;3.54;53.72
72395;BME280;60384;48.152;11.614;2023-03-12T05:26:36;95285.16;;;3.55;53.79
72395;BME280;60384;48.152;11.614;2023-03-12T05:29:49;95284.66;;;3.53;54.05
72395;BME280;60384;48.152;11.614;2023-03-12T05:32:51;95282.78;;;3.53;53.67
72395;BME280;60384;48.152;11.614;2023-03-12T05:35:53;95291.81;;;3.52;54.44
72395;BME280;60384;48.152;11.614;2023-03-12T05:38:55;95296.84;;;3.49;53.85
72395;BME280;60384;48.152;11.614;2023-03-12T05:41:59;95300.31;;;3.44;54.08
72395;BME280;60384;48.152;11.614;2023-03-12T05:45:03;95299.06;;;3.37;54.15
72395;BME280;60384;48.152;11.614;2023-03-12T05:48:06;95302.28;;;3.33;53.72
72395;BME280;60384;48.152;11.614;2023-03-12T05:51:08;95298.84;;;3.33;53.96
72395;BME280;60384;48.152;11.614;2023-03-12T05:54:10;95303.28;;;3.38;54.35
72395;BME280;60384;48.152;11.614;2023-03-12T05:57:12;95308.03;;;3.41;53.87
72395;BME280;60384;48.152;11.614;2023-03-12T06:00:17;95312.97;;;3.47;53.93
72395;BME280;60384;48.152;11.614;2023-03-12T06:03:27;95311.56;;;3.55;53.89
72395;BME280;60384;48.152;11.614;2023-03-12T06:06:29;95310.97;;;3.63;53.40
72395;BME280;60384;48.152;11.614;2023-03-12T06:09:31;95301.34;;;3.72;53.58
72395;BME280;60384;48.152;11.614;2023-03-12T06:12:33;95308.91;;;3.79;53.51
72395;BME280;60384;48.152;11.614;2023-03-12T06:15:36;95297.28;;;3.80;53.58
72395;BME280;60384;48.152;11.614;2023-03-12T06:18:41;95294.59;;;3.85;53.95
72395;BME280;60384;48.152;11.614;2023-03-12T06:21:43;95287.66;;;3.89;54.02
72395;BME280;60384;48.152;11.614;2023-03-12T06:24:46;95290.53;;;3.92;53.53
72395;BME280;60384;48.152;11.614;2023-03-12T06:27:49;95288.63;;;3.98;53.35
72395;BME280;60384;48.152;11.614;2023-03-12T06:30:53;95283.81;;;4.00;53.66
72395;BME280;60384;48.152;11.614;2023-03-12T06:33:56;95275.81;;;4.05;53.00
72395;BME280;60384;48.152;11.614;2023-03-12T06:36:58;95287.63;;;4.12;53.95
72395;BME280;60384;48.152;11.614;2023-03-12T06:39:59;95284.63;;;4.19;53.38
72395;BME280;60384;48.152;11.614;2023-03-12T06:43:01;95297.19;;;4.27;53.52
72395;BME280;60384;48.152;11.614;2023-03-12T06:46:05;95287.66;;;4.31;52.87
72395;BME280;60384;48.152;11.614;2023-03-12T06:49:07;95303.72;;;4.35;53.08
72395;BME280;60384;48.152;11.614;2023-03-12T06:52:09;95303.94;;;4.38;53.17
72395;BME280;60384;48.152;11.614;2023-03-12T06:55:11;95306.50;;;4.43;52.92
72395;BME280;60384;48.152;11.614;2023-03-12T06:58:13;95314.06;;;4.50;53.44
72395;BME280;60384;48.152;11.614;2023-03-12T07:01:16;95308.78;;;4.50;53.60
72395;BME280;60384;48.152;11.614;2023-03-12T07:04:18;95315.72;;;4.46;53.49
72395;BME280;60384;48.152;11.614;2023-03-12T07:07:20;95328.88;;;4.51;53.70
72395;BME280;60384;48.152;11.614;2023-03-12T07:10:22;95317.44;;;4.55;53.17
72395;BME280;60384;48.152;11.614;2023-03-12T07:13:23;95326.56;;;4.63;53.02
72395;BME280;60384;48.152;11.614;2023-03-12T07:16:27;95318.56;;;4.68;53.24
72395;BME280;60384;48.152;11.614;2023-03-12T07:19:29;95329.66;;;4.70;53.26
72395;BME280;60384;48.152;11.614;2023-03-12T07:22:31;95322.16;;;4.77;53.17
72395;BME280;60384;48.152;11.614;2023-03-12T07:25:34;95325.50;;;4.83;52.94
72395;BME280;60384;48.152;11.614;2023-03-12T07:28:36;95325.97;;;4.85;52.99
72395;BME280;60384;48.152;11.614;2023-03-12T07:31:39;95327.56;;;4.86;53.15
72395;BME280;60384;48.152;11.614;2023-03-12T07:34:41;95325.13;;;4.89;53.14
72395;BME280;60384;48.152;11.614;2023-03-12T07:37:43;95318.00;;;5.04;52.96
72395;BME280;60384;48.152;11.614;2023-03-12T07:40:49;95311.38;;;5.20;52.66
72395;BME280;60384;48.152;11.614;2023-03-12T07:43:51;95303.47;;;5.33;52.52
72395;BME280;60384;48.152;11.614;2023-03-12T07:46:54;95314.47;;;5.40;52.72
72395;BME280;60384;48.152;11.614;2023-03-12T07:49:56;95315.47;;;5.45;52.87
72395;BME280;60384;48.152;11.614;2023-03-12T07:52:58;95319.50;;;5.56;52.55
72395;BME280;60384;48.152;11.614;2023-03-12T07:56:00;95321.16;;;5.65;52.63
72395;BME280;60384;48.152;11.614;2023-03-12T07:59:02;95320.59;;;5.68;52.61
72395;BME280;60384;48.152;11.614;2023-03-12T08:02:05;95308.72;;;5.66;52.45
72395;BME280;60384;48.152;11.614;2023-03-12T08:05:08;95320.19;;;5.61;53.01
72395;BME280;60384;48.152;11.614;2023-03-12T08:08:10;95330.78;;;5.61;52.89
72395;BME280;60384;48.152;11.614;2023-03-12T08:11:12;95330.97;;;5.65;52.83
72395;BME280;60384;48.152;11.614;2023-03-12T08:14:13;95325.50;;;5.75;52.78
72395;BME280;60384;48.152;11.614;2023-03-12T08:17:17;95322.59;;;5.90;52.62
72395;BME280;60384;48.152;11.614;2023-03-12T08:20:19;95334.84;;;6.00;52.40
72395;BME280;60384;48.152;11.614;2023-03-12T08:23:22;95342.69;;;6.05;52.60
72395;BME280;60384;48.152;11.614;2023-03-12T08:26:23;95338.28;;;6.00;52.74
72395;BME280;60384;48.152;11.614;2023-03-12T08:29:25;95334.84;;;6.00;52.72
72395;BME280;60384;48.152;11.614;2023-03-12T08:32:29;95336.13;;;6.02;52.72
72395;BME280;60384;48.152;11.614;2023-03-12T08:35:30;95331.03;;;6.06;52.92
72395;BME280;60384;48.152;11.614;2023-03-12T08:38:32;95338.09;;;6.10;52.76
72395;BME280;60384;48.152;11.614;2023-03-12T08:41:34;95340.25;;;6.08;53.07
72395;BME280;60384;48.152;11.614;2023-03-12T08:44:36;95336.72;;;6.13;52.89
72395;BME280;60384;48.152;11.614;2023-03-12T08:47:39;95336.00;;;6.21;52.89
72395;BME280;60384;48.152;11.614;2023-03-12T08:50:41;95328.84;;;6.35;52.79
72395;BME280;60384;48.152;11.614;2023-03-12T08:53:43;95342.78;;;6.41;52.72
72395;BME280;60384;48.152;11.614;2023-03-12T08:56:48;95347.91;;;6.37;52.82
72395;BME280;60384;48.152;11.614;2023-03-12T08:59:51;95357.44;;;6.25;52.84
72395;BME280;60384;48.152;11.614;2023-03-12T09:02:54;95355.78;;;6.15;52.88
72395;BME280;60384;48.152;11.614;2023-03-12T09:06:05;95359.78;;;6.12;53.30
72395;BME280;60384;48.152;11.614;2023-03-12T09:09:09;95359.19;;;6.15;53.65
72395;BME280;60384;48.152;11.614;2023-03-12T09:12:11;95363.41;;;6.16;53.09
72395;BME280;60384;48.152;11.614;2023-03-12T09:15:12;95355.56;;;6.25;53.08
72395;BME280;60384;48.152;11.614;2023-03-12T09:18:16;95353.28;;;6.46;53.08
72395;BME280;60384;48.152;11.614;2023-03-12T09:21:20;95352.19;;;6.60;52.43
72395;BME280;60384;48.152;11.614;2023-03-12T09:24:22;95352.75;;;6.57;52.24
72395;BME280;60384;48.152;11.614;2023-03-12T09:27:24;95359.75;;;6.53;52.78
72395;BME280;60384;48.152;11.614;2023-03-12T09:30:26;95356.50;;;6.56;53.03
72395;BME280;60384;48.152;11.614;2023-03-12T09:33:31;95361.00;;;6.56;52.96
72395;BME280;60384;48.152;11.614;2023-03-12T09:36:34;95364.28;;;6.39;52.79
72395;BME280;60384;48.152;11.614;2023-03-12T09:39:36;95366.06;;;6.30;53.29
72395;BME280;60384;48.152;11.614;2023-03-12T09:42:40;95367.16;;;6.29;53.29
72395;BME280;60384;48.152;11.614;2023-03-12T09:45:44;95374.72;;;6.22;53.42
72395;BME280;60384;48.152;11.614;2023-03-12T09:48:49;95379.34;;;6.16;53.24
72395;BME280;60384;48.152;11.614;2023-03-12T09:51:54;95373.94;;;6.08;53.44
72395;BME280;60384;48.152;11.614;2023-03-12T09:55:01;95379.13;;;5.99;53.77
72395;BME280;60384;48.152;11.614;2023-03-12T09:58:10;95376.41;;;5.91;53.97
72395;BME280;60384;48.152;11.614;2023-03-12T10:01:32;95367.66;;;5.90;53.64
72395;BME280;60384;48.152;11.614;2023-03-12T10:04:40;95368.53;;;5.99;53.69
72395;BME280;60384;48.152;11.614;2023-03-12T10:07:47;95372.78;;;6.14;53.54
72395;BME280;60384;48.152;11.614;2023-03-12T10:10:52;95368.53;;;6.13;53.65
72395;BME280;60384;48.152;11.614;2023-03-12T10:14:05;95370.69;;;6.11;53.74
72395;BME280;60384;48.152;11.614;2023-03-12T10:17:21;95371.09;;;6.18;53.68
72395;BME280;60384;48.152;11.614;2023-03-12T10:20:48;95368.94;;;6.20;53.42
72395;BME280;60384;48.152;11.614;2023-03-12T10:24:03;95375.41;;;6.14;53.43
72395;BME280;60384;48.152;11.614;2023-03-12T10:27:11;95375.03;;;6.07;53.65
72395;BME280;60384;48.152;11.614;2023-03-12T10:30:19;95366.00;;;6.08;53.66
72395;BME280;60384;48.152;11.614;2023-03-12T10:33:24;95373.16;;;6.07;53.71
72395;BME280;60384;48.152;11.614;2023-03-12T10:36:36;95377.16;;;6.05;53.78
72395;BME280;60384;48.152;11.614;2023-03-12T10:39:38;95368.34;;;5.96;53.82
72395;BME280;60384;48.152;11.614;2023-03-12T10:42:41;95368.22;;;5.87;53.89
72395;BME280;60384;48.152;11.614;2023-03-12T10:45:46;95376.19;;;5.87;53.87
72395;BME280;60384;48.152;11.614;2023-03-12T10:49:22;95376.75;;;5.84;54.03
72395;BME280;60384;48.152;11.614;2023-03-12T10:52:26;95381.84;;;5.80;54.18
72395;BME280;60384;48.152;11.614;2023-03-12T10:55:28;95374.19;;;5.79;53.86
72395;BME280;60384;48.152;11.614;2023-03-12T10:58:33;95383.41;;;5.81;54.21
72395;BME280;60384;48.152;11.614;2023-03-12T11:01:51;95376.47;;;5.86;53.88
72395;BME280;60384;48.152;11.614;2023-03-12T11:04:53;95376.75;;;5.84;53.90
72395;BME280;60384;48.152;11.614;2023-03-12T11:07:56;95371.25;;;5.80;53.82
72395;BME280;60384;48.152;11.614;2023-03-12T11:11:01;95368.88;;;5.79;54.32
72395;BME280;60384;48.152;11.614;2023-03-12T11:14:05;95369.88;;;5.83;54.29
72395;BME280;60384;48.152;11.614;2023-03-12T11:17:19;95372.94;;;5.90;54.19
72395;BME280;60384;48.152;11.614;2023-03-12T11:20:25;95372.84;;;5.95;53.64
72395;BME280;60384;48.152;11.614;2023-03-12T11:23:29;95367.44;;;6.00;54.01
72395;BME280;60384;48.152;11.614;2023-03-12T11:26:36;95366.66;;;6.00;53.87
72395;BME280;60384;48.152;11.614;2023-03-12T11:29:43;95369.63;;;6.12;53.85
72395;BME280;60384;48.152;11.614;2023-03-12T11:32:48;95363.63;;;6.20;54.16
72395;BME280;60384;48.152;11.614;2023-03-12T11:36:00;95365.19;;;6.21;53.97
72395;BME280;60384;48.152;11.614;2023-03-12T11:39:10;95360.88;;;6.25;54.44
72395;BME280;60384;48.152;11.614;2023-03-12T11:42:23;95351.41;;;6.33;53.89
72395;BME280;60384;48.152;11.614;2023-03-12T11:45:36;95359.47;;;6.41;53.76
72395;BME280;60384;48.152;11.614;2023-03-12T11:48:50;95357.78;;;6.45;54.21
72395;BME280;60384;48.152;11.614;2023-03-12T11:52:02;95349.81;;;6.59;53.79
72395;BME280;60384;48.152;11.614;2023-03-12T11:55:15;95344.69;;;6.62;53.55
72395;BME280;60384;48.152;11.614;2023-03-12T11:58:40;95349.75;;;6.73;53.91
72395;BME280;60384;48.152;11.614;2023-03-12T12:01:55;95354.09;;;6.69;54.34
72395;BME280;60384;48.152;11.614;2023-03-12T12:05:20;95344.09;;;6.66;53.90
72395;BME280;60384;48.152;11.614;2023-03-12T12:08:33;95333.97;;;6.90;53.44
72395;BME280;60384;48.152;11.614;2023-03-12T12:11:48;95339.75;;;7.05;53.62
72395;BME280;60384;48.152;11.614;2023-03-12T12:15:01;95337.97;;;7.01;53.43
72395;BME280;60384;48.152;11.614;2023-03-12T12:18:20;95344.44;;;7.09;54.02
72395;BME280;60384;48.152;11.614;2023-03-12T12:22:03;95348.84;;;7.13;53.61
72395;BME280;60384;48.152;11.614;2023-03-12T12:25:21;95342.03;;;7.21;53.71
72395;BME280;60384;48.152;11.614;2023-03-12T12:28:44;95345.81;;;7.28;54.22
72395;BME280;60384;48.152;11.614;2023-03-12T12:31:51;95330.06;;;7.32;54.15
72395;BME280;60384;48.152;11.614;2023-03-12T12:35:03;95337.72;;;7.33;54.41
72395;BME280;60384;48.152;11.614;2023-03-12T12:38:10;95335.72;;;7.39;53.85
72395;BME280;60384;48.152;11.614;2023-03-12T12:41:15;95339.34;;;7.43;54.41
72395;BME280;60384;48.152;11.614;2023-03-12T12:44:22;95330.78;;;7.46;54.21
72395;BME280;60384;48.152;11.614;2023-03-12T12:47:33;95335.47;;;7.49;53.95
72395;BME280;60384;48.152;11.614;2023-03-12T12:50:38;95329.53;;;7.52;54.49
72395;BME280;60384;48.152;11.614;2023-03-12T12:53:46;95326.88;;;7.52;54.55
72395;BME280;60384;48.152;11.614;2023-03-12T12:56:53;95328.00;;;7.51;53.71
72395;BME280;60384;48.152;11.614;2023-03-12T13:00:13;95317.22;;;7.56;54.68
72395;BME280;60384;48.152;11.614;2023-03-12T13:03:18;95321.63;;;7.61;54.93
72395;BME280;60384;48.152;11.614;2023-03-12T13:06:21;95321.47;;;7.66;54.84
72395;BME280;60384;48.152;11.614;2023-03-12T13:09:35;95324.00;;;7.71;54.01
72395;BME280;60384;48.152;11.614;2023-03-12T13:12:49;95317.63;;;7.80;54.27
72395;BME280;60384;48.152;11.614;2023-03-12T13:16:48;95318.16;;;8.00;53.86
72395;BME280;60384;48.152;11.614;2023-03-12T13:19:50;95313.38;;;8.19;53.45
72395;BME280;60384;48.152;11.614;2023-03-12T13:26:54;95313.31;;;8.41;53.43
72395;BME280;60384;48.152;11.614;2023-03-12T13:29:58;95312.06;;;8.56;53.63
72395;BME280;60384;48.152;11.614;2023-03-12T13:33:11;95318.94;;;8.57;53.94
72395;BME280;60384;48.152;11.614;2023-03-12T13:36:35;95317.56;;;8.59;54.19
72395;BME280;60384;48.152;11.614;2023-03-12T13:39:56;95315.53;;;8.65;53.58
72395;BME280;60384;48.152;11.614;2023-03-12T13:43:02;95322.09;;;8.85;54.16
72395;BME280;60384;48.152;11.614;2023-03-12T13:46:07;95321.94;;;9.07;53.85
72395;BME280;60384;48.152;11.614;2023-03-12T13:49:23;95320.84;;;9.17;53.83
72395;BME280;60384;48.152;11.614;2023-03-12T13:52:26;95322.69;;;9.33;53.42
72395;BME280;60384;48.152;11.614;2023-03-12T13:55:31;95325.47;;;9.45;53.56
72395;BME280;60384;48.152;11.614;2023-03-12T13:58:40;95328.91;;;9.54;53.44
72395;BME280;60384;48.152;11.614;2023-03-12T14:01:45;95329.53;;;9.51;53.22
72395;BME280;60384;48.152;11.614;2023-03-12T14:04:50;95327.50;;;9.48;54.08
72395;BME280;60384;48.152;11.614;2023-03-12T14:08:00;95327.81;;;9.47;54.01
72395;BME280;60384;48.152;11.614;2023-03-12T14:11:18;95330.19;;;9.48;54.12
72395;BME280;60384;48.152;11.614;2023-03-12T14:18:10;95317.59;;;9.58;53.98
72395;BME280;60384;48.152;11.614;2023-03-12T14:21:16;95318.38;;;9.67;53.96
72395;BME280;60384;48.152;11.614;2023-03-12T14:24:26;95323.06;;;9.70;54.18
72395;BME280;60384;48.152;11.614;2023-03-12T14:27:30;95318.63;;;9.82;53.93
72395;BME280;60384;48.152;11.614;2023-03-12T14:30:40;95310.81;;;10.45;52.60
72395;BME280;60384;48.152;11.614;2023-03-12T14:33:52;95307.88;;;11.21;51.83
72395;BME280;60384;48.152;11.614;2023-03-12T14:37:00;95309.44;;;11.22;52.01
72395;BME280;60384;48.152;11.614;2023-03-12T14:40:07;95310.78;;;11.28;53.48
72395;BME280;60384;48.152;11.614;2023-03-12T14:43:24;95313.78;;;11.26;52.96
72395;BME280;60384;48.152;11.614;2023-03-12T14:46:26;95311.06;;;11.14;53.69
72395;BME280;60384;48.152;11.614;2023-03-12T14:49:29;95303.78;;;11.02;53.49
72395;BME280;60384;48.152;11.614;2023-03-12T14:52:33;95297.75;;;10.93;53.74
72395;BME280;60384;48.152;11.614;2023-03-12T14:55:34;95301.25;;;10.85;54.25
72395;BME280;60384;48.152;11.614;2023-03-12T14:58:42;95299.75;;;10.75;54.49
72395;BME280;60384;48.152;11.614;2023-03-12T15:01:44;95300.47;;;10.64;54.71
72395;BME280;60384;48.152;11.614;2023-03-12T15:04:47;95302.75;;;10.53;54.99
72395;BME280;60384;48.152;11.614;2023-03-12T15:07:56;95287.88;;;10.44;54.83
72395;BME280;60384;48.152;11.614;2023-03-12T15:11:01;95291.84;;;10.38;55.14
72395;BME280;60384;48.152;11.614;2023-03-12T15:14:06;95297.84;;;10.34;54.99
72395;BME280;60384;48.152;11.614;2023-03-12T15:17:14;95306.16;;;10.33;54.77
72395;BME280;60384;48.152;11.614;2023-03-12T15:20:17;95306.81;;;10.30;54.92
72395;BME280;60384;48.152;11.614;2023-03-12T15:23:23;95296.34;;;10.46;54.30
72395;BME280;60384;48.152;11.614;2023-03-12T15:26:27;95317.66;;;10.54;54.43
72395;BME280;60384;48.152;11.614;2023-03-12T15:29:30;95312.47;;;10.58;54.86
72395;BME280;60384;48.152;11.614;2023-03-12T15:32:31;95312.19;;;10.51;55.45
72395;BME280;60384;48.152;11.614;2023-03-12T15:35:34;95310.50;;;10.46;55.26
72395;BME280;60384;48.152;11.614;2023-03-12T15:38:43;95312.69;;;10.44;54.63
72395;BME280;60384;48.152;11.614;2023-03-12T15:41:46;95305.59;;;10.48;54.66
72395;BME280;60384;48.152;11.614;2023-03-12T15:44:51;95309.19;;;10.52;54.71
72395;BME280;60384;48.152;11.614;2023-03-12T15:47:54;95306.97;;;10.54;54.43
72395;BME280;60384;48.152;11.614;2023-03-12T15:50:56;95314.53;;;10.52;55.73
72395;BME280;60384;48.152;11.614;2023-03-12T15:54:04;95312.50;;;10.49;55.87
72395;BME280;60384;48.152;11.614;2023-03-12T15:57:21;95301.69;;;10.46;55.65
72395;BME280;60384;48.152;11.614;2023-03-12T16:00:26;95307.16;;;10.49;55.34
72395;BME280;60384;48.152;11.614;2023-03-12T16:03:29;95304.50;;;10.49;54.99
72395;BME280;60384;48.152;11.614;2023-03-12T16:06:31;95310.28;;;10.51;55.04
72395;BME280;60384;48.152;11.614;2023-03-12T16:09:36;95315.63;;;10.51;55.71
72395;BME280;60384;48.152;11.614;2023-03-12T16:12:38;95315.94;;;10.50;55.13
72395;BME280;60384;48.152;11.614;2023-03-12T16:15:42;95332.63;;;10.47;55.60
72395;BME280;60384;48.152;11.614;2023-03-12T16:18:44;95322.94;;;10.42;55.29
72395;BME280;60384;48.152;11.614;2023-03-12T16:21:46;95319.47;;;10.42;55.59
72395;BME280;60384;48.152;11.614;2023-03-12T16:24:49;95326.34;;;10.43;55.42
72395;BME280;60384;48.152;11.614;2023-03-12T16:27:53;95313.47;;;10.45;55.62
72395;BME280;60384;48.152;11.614;2023-03-12T16:30:56;95320.38;;;10.46;55.46